createdAt,value
2019-01-20T00:00:40.596Z,16.07
2019-01-20T00:03:08.925Z,15.47
2019-01-20T00:05:37.205Z,12.83
2019-01-20T00:08:05.624Z,14.10
2019-01-20T00:10:33.936Z,14.67
2019-01-20T00:13:02.217Z,14.23
2019-01-20T00:15:30.492Z,16.50
2019-01-20T00:17:58.820Z,13.90
2019-01-20T00:20:27.135Z,14.67
2019-01-20T00:22:55.531Z,14.57
2019-01-20T00:25:24.635Z,13.43
2019-01-20T00:27:52.993Z,14.63
2019-01-20T00:30:21.352Z,14.13
2019-01-20T00:32:49.802Z,16.60
2019-01-20T00:35:18.084Z,14.90
2019-01-20T00:37:46.455Z,13.03
2019-01-20T00:40:16.219Z,13.13
2019-01-20T00:42:44.500Z,13.23
2019-01-20T00:45:15.300Z,13.93
2019-01-20T00:47:43.617Z,14.77
2019-01-20T00:50:13.630Z,13.73
2019-01-20T00:52:41.978Z,14.63
2019-01-20T00:55:12.767Z,13.27
2019-01-20T00:57:41.409Z,14.60
2019-01-20T01:00:22.526Z,13.57
2019-01-20T01:02:50.808Z,14.33
2019-01-20T01:05:19.700Z,13.77
2019-01-20T01:07:48.020Z,13.60
2019-01-20T01:10:16.319Z,12.67
2019-01-20T01:12:44.606Z,13.67
2019-01-20T01:15:13.002Z,11.10
2019-01-20T01:17:41.293Z,11.07
2019-01-20T01:20:12.387Z,12.53
2019-01-20T01:22:40.710Z,11.47
2019-01-20T01:25:10.723Z,13.33
2019-01-20T01:27:39.760Z,12.00
2019-01-20T01:30:19.567Z,12.50
2019-01-20T01:32:47.848Z,11.03
2019-01-20T01:35:16.126Z,11.50
2019-01-20T01:37:44.450Z,13.13
2019-01-20T01:40:15.118Z,11.93
2019-01-20T01:42:43.530Z,11.20
2019-01-20T01:45:16.652Z,12.33
2019-01-20T01:47:44.935Z,12.47
2019-01-20T01:50:14.245Z,9.87
2019-01-20T01:52:42.558Z,11.70
2019-01-20T01:55:11.373Z,12.30
2019-01-20T01:57:39.662Z,11.17
2019-01-20T02:00:11.839Z,10.03
2019-01-20T02:02:40.113Z,10.33
2019-01-20T02:05:09.439Z,10.43
2019-01-20T02:07:37.763Z,10.60
2019-01-20T02:10:09.377Z,10.90
2019-01-20T02:12:37.657Z,10.10
2019-01-20T02:15:08.095Z,10.57
2019-01-20T02:17:36.381Z,8.90
2019-01-20T02:20:07.802Z,9.50
2019-01-20T02:22:36.115Z,9.10
2019-01-20T02:25:05.028Z,10.83
2019-01-20T02:27:33.304Z,10.37
2019-01-20T02:30:02.589Z,9.63
2019-01-20T02:32:30.859Z,8.00
2019-01-20T02:34:59.134Z,10.47
2019-01-20T02:37:27.475Z,9.80
2019-01-20T02:39:55.752Z,9.30
2019-01-20T02:42:24.029Z,10.40
2019-01-20T02:44:52.351Z,8.67
2019-01-20T02:47:20.628Z,8.67
2019-01-20T02:49:48.901Z,7.77
2019-01-20T02:52:17.210Z,8.23
2019-01-20T02:54:45.555Z,7.40
2019-01-20T02:57:13.899Z,8.27
2019-01-20T02:59:42.201Z,6.97
2019-01-20T03:02:10.549Z,7.20
2019-01-20T03:04:38.822Z,9.37
2019-01-20T03:07:07.133Z,8.40
2019-01-20T03:09:35.408Z,8.43
2019-01-20T03:12:03.887Z,7.07
2019-01-20T03:14:32.172Z,7.57
2019-01-20T03:17:00.449Z,7.67
2019-01-20T03:19:28.890Z,7.30
2019-01-20T03:21:57.197Z,6.30
2019-01-20T03:24:25.480Z,8.40
2019-01-20T03:26:53.858Z,7.27
2019-01-20T03:29:22.138Z,7.43
2019-01-20T03:31:51.182Z,6.83
2019-01-20T03:34:19.519Z,6.87
2019-01-20T03:36:47.826Z,7.17
2019-01-20T03:39:16.102Z,7.13
2019-01-20T03:41:44.374Z,8.20
2019-01-20T03:44:12.685Z,8.10
2019-01-20T03:46:40.962Z,6.87
2019-01-20T03:49:09.249Z,8.30
2019-01-20T03:51:37.571Z,7.50
2019-01-20T03:54:05.849Z,6.20
2019-01-20T03:56:34.125Z,6.20
2019-01-20T03:59:02.481Z,6.47
2019-01-20T04:01:30.789Z,8.10
2019-01-20T04:03:59.065Z,8.43
2019-01-20T04:06:27.408Z,7.07
2019-01-20T04:08:55.676Z,8.27
2019-01-20T04:11:23.953Z,7.37
2019-01-20T04:13:52.271Z,8.43
2019-01-20T04:16:20.615Z,7.83
2019-01-20T04:18:48.884Z,6.90
2019-01-20T04:21:17.208Z,7.50
2019-01-20T04:23:45.559Z,7.07
2019-01-20T04:26:13.836Z,6.90
2019-01-20T04:28:42.151Z,6.73
2019-01-20T04:31:10.428Z,7.20
2019-01-20T04:33:39.518Z,8.80
2019-01-20T04:36:07.913Z,8.70
2019-01-20T04:38:36.278Z,10.20
2019-01-20T04:41:04.627Z,11.00
2019-01-20T04:43:32.945Z,13.77
2019-01-20T04:46:01.241Z,13.00
2019-01-20T04:48:29.504Z,13.70
2019-01-20T04:50:58.041Z,6.90
2019-01-20T04:53:27.316Z,11.13
2019-01-20T04:55:55.652Z,17.83
2019-01-20T04:58:24.131Z,11.20
2019-01-20T05:00:52.424Z,15.37
2019-01-20T05:03:20.699Z,9.90
2019-01-20T05:05:49.012Z,9.23
2019-01-20T05:08:17.371Z,10.77
2019-01-20T05:10:45.717Z,9.30
2019-01-20T05:13:14.184Z,9.23
2019-01-20T05:15:42.728Z,8.20
2019-01-20T05:18:11.071Z,6.57
2019-01-20T05:20:39.442Z,5.87
2019-01-20T05:23:07.736Z,6.20
2019-01-20T05:25:36.025Z,5.87
2019-01-20T05:28:04.411Z,6.97
2019-01-20T05:30:32.686Z,7.00
2019-01-20T05:33:00.963Z,6.50
2019-01-20T05:35:30.131Z,6.20
2019-01-20T05:37:58.418Z,6.17
2019-01-20T05:40:27.006Z,6.97
2019-01-20T05:42:55.308Z,7.73
2019-01-20T05:45:24.799Z,13.73
2019-01-20T05:47:53.086Z,8.77
2019-01-20T05:50:21.394Z,5.63
2019-01-20T05:52:49.673Z,7.73
2019-01-20T05:55:17.943Z,7.43
2019-01-20T05:57:46.255Z,6.43
2019-01-20T06:00:17.166Z,5.77
2019-01-20T06:02:45.511Z,5.73
2019-01-20T06:05:13.845Z,5.47
2019-01-20T06:07:42.262Z,6.20
2019-01-20T06:10:12.470Z,5.93
2019-01-20T06:12:40.789Z,7.67
2019-01-20T06:15:17.180Z,8.63
2019-01-20T06:17:45.568Z,6.30
2019-01-20T06:20:14.264Z,7.07
2019-01-20T06:22:42.539Z,8.97
2019-01-20T06:25:10.853Z,6.67
2019-01-20T06:27:39.125Z,9.20
2019-01-20T06:30:10.671Z,8.40
2019-01-20T06:32:39.065Z,8.13
2019-01-20T06:35:07.481Z,6.97
2019-01-20T06:37:36.518Z,8.17
2019-01-20T06:40:05.974Z,7.20
2019-01-20T06:42:34.249Z,6.67
2019-01-20T06:45:02.593Z,6.33
2019-01-20T06:47:30.971Z,8.03
2019-01-20T06:49:59.274Z,6.93
2019-01-20T06:52:27.555Z,8.03
2019-01-20T06:54:55.863Z,9.20
2019-01-20T06:57:24.142Z,7.67
2019-01-20T06:59:52.483Z,7.73
2019-01-20T07:02:20.785Z,8.20
2019-01-20T07:04:49.069Z,8.43
2019-01-20T07:07:17.345Z,6.60
2019-01-20T07:09:45.660Z,8.10
2019-01-20T07:12:13.943Z,9.23
2019-01-20T07:14:42.221Z,9.20
2019-01-20T07:17:10.531Z,8.13
2019-01-20T07:19:38.808Z,8.10
2019-01-20T07:22:07.081Z,7.87
2019-01-20T07:24:35.465Z,10.27
2019-01-20T07:27:03.750Z,7.13
2019-01-20T07:29:32.039Z,7.40
2019-01-20T07:32:00.409Z,7.60
2019-01-20T07:34:28.758Z,8.97
2019-01-20T07:36:57.029Z,6.93
2019-01-20T07:39:26.233Z,8.27
2019-01-20T07:41:54.513Z,7.80
2019-01-20T07:44:22.800Z,6.90
2019-01-20T07:46:51.102Z,7.87
2019-01-20T07:49:19.377Z,8.40
2019-01-20T07:51:47.648Z,6.43
2019-01-20T07:54:16.107Z,6.53
2019-01-20T07:56:44.459Z,6.33
2019-01-20T07:59:12.731Z,6.20
2019-01-20T08:01:41.202Z,6.17
2019-01-20T08:04:09.486Z,7.20
2019-01-20T08:06:37.858Z,6.57
2019-01-20T08:09:07.558Z,6.27
2019-01-20T08:11:35.825Z,5.20
2019-01-20T08:14:04.168Z,7.00
2019-01-20T08:16:32.483Z,8.00
2019-01-20T08:19:00.972Z,11.23
2019-01-20T08:21:29.324Z,13.13
2019-01-20T08:23:57.653Z,10.27
2019-01-20T08:26:26.082Z,8.00
2019-01-20T08:28:54.519Z,9.80
2019-01-20T08:31:22.825Z,14.20
2019-01-20T08:33:51.123Z,11.63
2019-01-20T08:36:19.480Z,9.97
2019-01-20T08:38:47.874Z,8.67
2019-01-20T08:41:17.243Z,8.00
2019-01-20T08:43:45.588Z,10.70
2019-01-20T08:46:20.045Z,10.33
2019-01-20T08:48:48.537Z,7.20
2019-01-20T08:51:16.827Z,7.87
2019-01-20T08:53:45.343Z,6.90
2019-01-20T08:56:13.689Z,5.70
2019-01-20T08:58:42.174Z,8.60
2019-01-20T09:01:10.557Z,7.43
2019-01-20T09:03:39.205Z,8.77
2019-01-20T09:06:07.484Z,7.73
2019-01-20T09:08:36.006Z,8.53
2019-01-20T09:11:05.543Z,6.83
2019-01-20T09:13:39.649Z,5.03
2019-01-20T09:16:04.356Z,5.03
2019-01-20T09:18:32.705Z,6.80
2019-01-20T09:21:01.201Z,7.57
2019-01-20T09:23:29.601Z,10.17
2019-01-20T09:25:58.086Z,7.13
2019-01-20T09:28:26.501Z,8.17
2019-01-20T09:30:55.036Z,8.23
2019-01-20T09:33:24.629Z,8.40
2019-01-20T09:35:53.390Z,7.37
2019-01-20T09:38:21.912Z,5.67
2019-01-20T09:40:50.407Z,10.00
2019-01-20T09:43:21.342Z,8.17
2019-01-20T09:45:50.844Z,7.77
2019-01-20T09:48:19.340Z,7.80
2019-01-20T09:50:47.827Z,6.53
2019-01-20T09:53:16.341Z,5.73
2019-01-20T09:55:44.833Z,12.13
2019-01-20T09:58:13.317Z,10.23
2019-01-20T10:00:41.838Z,9.90
2019-01-20T10:03:16.174Z,10.73
2019-01-20T10:05:40.548Z,9.00
2019-01-20T10:08:09.070Z,8.73
2019-01-20T10:10:37.574Z,7.57
2019-01-20T10:13:06.060Z,9.60
2019-01-20T10:15:34.580Z,8.30
2019-01-20T10:18:03.074Z,8.20
2019-01-20T10:20:32.962Z,6.63
2019-01-20T10:23:01.497Z,7.37
2019-01-20T10:25:29.991Z,8.67
2019-01-20T10:27:58.478Z,8.23
2019-01-20T10:30:29.582Z,6.73
2019-01-20T10:32:58.064Z,7.50
2019-01-20T10:35:28.114Z,6.67
2019-01-20T10:37:58.203Z,8.07
2019-01-20T10:40:26.696Z,6.90
2019-01-20T10:42:55.172Z,5.87
2019-01-20T10:45:24.585Z,6.30
2019-01-20T10:47:53.080Z,8.27
2019-01-20T10:50:21.631Z,8.03
2019-01-20T10:52:50.148Z,8.53
2019-01-20T10:55:18.637Z,5.60
2019-01-20T10:57:47.118Z,6.87
2019-01-20T11:00:21.511Z,6.20
2019-01-20T11:02:49.996Z,5.40
2019-01-20T11:05:24.905Z,5.37
2019-01-20T11:07:48.718Z,8.03
2019-01-20T11:10:17.205Z,8.37
2019-01-20T11:12:47.260Z,8.33
2019-01-20T11:15:16.884Z,7.30
2019-01-20T11:17:45.401Z,6.57
2019-01-20T11:20:21.926Z,7.77
2019-01-20T11:22:50.408Z,15.67
2019-01-20T11:25:24.939Z,12.07
2019-01-20T11:27:53.428Z,13.60
2019-01-20T11:30:21.931Z,8.40
2019-01-20T11:32:50.421Z,7.77
2019-01-20T11:35:19.838Z,7.40
2019-01-20T11:37:48.346Z,11.60
2019-01-20T11:40:16.824Z,7.90
2019-01-20T11:42:45.356Z,7.60
2019-01-20T11:45:22.872Z,7.40
2019-01-20T11:47:51.389Z,10.63
2019-01-20T11:50:19.881Z,9.10
2019-01-20T11:52:48.380Z,5.90
2019-01-20T11:55:21.475Z,9.10
2019-01-20T11:57:49.957Z,7.23
2019-01-20T12:00:21.095Z,6.67
2019-01-20T12:02:49.640Z,11.23
2019-01-20T12:05:18.620Z,8.23
2019-01-20T12:07:47.114Z,6.80
2019-01-20T12:10:15.645Z,7.67
2019-01-20T12:12:45.696Z,8.30
2019-01-20T12:15:15.480Z,8.67
2019-01-20T12:17:45.584Z,8.27
2019-01-20T12:20:17.035Z,8.93
2019-01-20T12:22:45.515Z,8.87
2019-01-20T12:25:18.736Z,8.03
2019-01-20T12:27:47.234Z,9.13
2019-01-20T12:30:24.262Z,8.17
2019-01-20T12:32:52.746Z,8.50
2019-01-20T12:35:21.236Z,8.10
2019-01-20T12:37:49.757Z,8.20
2019-01-20T12:40:21.523Z,8.27
2019-01-20T12:42:50.004Z,8.23
2019-01-20T12:45:18.530Z,8.17
2019-01-20T12:47:47.020Z,7.80
2019-01-20T12:50:17.329Z,8.77
2019-01-20T12:52:47.409Z,7.10
2019-01-20T12:55:16.795Z,8.93
2019-01-20T12:57:46.844Z,10.03
2019-01-20T13:00:17.271Z,10.67
2019-01-20T13:02:45.755Z,12.27
2019-01-20T13:05:14.240Z,7.00
2019-01-20T13:07:42.761Z,8.07
2019-01-20T13:10:13.804Z,9.73
2019-01-20T13:12:42.295Z,9.40
2019-01-20T13:15:13.479Z,10.20
2019-01-20T13:17:41.964Z,8.23
2019-01-20T13:20:18.321Z,8.83
2019-01-20T13:22:46.813Z,8.83
2019-01-20T13:25:23.215Z,10.00
2019-01-20T13:27:51.705Z,8.83
2019-01-20T13:30:22.098Z,8.53
2019-01-20T13:32:50.608Z,9.13
2019-01-20T13:35:20.015Z,12.67
2019-01-20T13:37:50.798Z,13.53
2019-01-20T13:40:31.501Z,13.47
2019-01-20T13:42:59.994Z,13.07
2019-01-20T13:45:28.485Z,13.67
2019-01-20T13:47:57.005Z,11.70
2019-01-20T13:50:25.497Z,13.93
2019-01-20T13:52:53.991Z,13.10
2019-01-20T13:55:22.513Z,14.77
2019-01-20T13:57:50.995Z,17.63
2019-01-20T14:00:26.171Z,20.27
2019-01-20T14:02:54.698Z,19.43
2019-01-20T14:05:23.192Z,20.23
2019-01-20T14:07:51.680Z,19.20
2019-01-20T14:10:25.300Z,21.23
2019-01-20T14:12:53.792Z,21.00
2019-01-20T14:15:22.279Z,19.97
2019-01-20T14:17:50.798Z,19.83
2019-01-20T14:20:23.015Z,17.73
2019-01-20T14:22:51.508Z,19.77
2019-01-20T14:25:22.326Z,18.60
2019-01-20T14:27:50.808Z,28.50
2019-01-20T14:30:27.694Z,24.87
2019-01-20T14:32:56.183Z,23.27
2019-01-20T14:35:24.670Z,29.33
2019-01-20T14:37:53.207Z,28.13
2019-01-20T14:40:21.694Z,25.47
2019-01-20T14:42:50.887Z,25.23
2019-01-20T14:45:19.714Z,22.90
2019-01-20T14:47:48.292Z,22.43
2019-01-20T14:50:21.856Z,20.80
2019-01-20T14:52:50.420Z,21.37
2019-01-20T14:55:18.974Z,22.13
2019-01-20T14:57:47.473Z,23.90
2019-01-20T15:00:27.754Z,23.43
2019-01-20T15:02:56.288Z,20.77
2019-01-20T15:05:24.779Z,19.90
2019-01-20T15:07:53.380Z,16.57
2019-01-20T15:10:21.881Z,18.67
2019-01-20T15:12:50.481Z,17.40
2019-01-20T15:15:25.046Z,16.50
2019-01-20T15:17:53.532Z,15.73
2019-01-20T15:20:22.032Z,16.33
2019-01-20T15:22:50.549Z,13.93
2019-01-20T15:25:20.044Z,12.27
2019-01-20T15:27:48.930Z,12.37
2019-01-20T15:30:25.819Z,12.93
2019-01-20T15:32:54.419Z,12.43
2019-01-20T15:35:22.918Z,13.30
2019-01-20T15:37:51.450Z,14.47
2019-01-20T15:40:21.444Z,13.00
2019-01-20T15:42:49.930Z,16.23
2019-01-20T15:45:22.621Z,15.07
2019-01-20T15:47:52.559Z,16.43
2019-01-20T15:50:29.794Z,19.33
2019-01-20T15:52:58.289Z,25.67
2019-01-20T15:55:26.794Z,48.20
2019-01-20T15:57:55.340Z,52.30
2019-01-20T16:00:31.330Z,50.10
2019-01-20T16:02:59.878Z,28.83
2019-01-20T16:05:28.767Z,39.30
2019-01-20T16:07:57.283Z,25.13
2019-01-20T16:10:25.807Z,24.33
2019-01-20T16:12:54.304Z,22.97
2019-01-20T16:15:25.481Z,21.93
2019-01-20T16:17:54.911Z,22.13
2019-01-20T16:20:26.871Z,20.23
2019-01-20T16:22:55.395Z,20.33
2019-01-20T16:25:26.558Z,17.97
2019-01-20T16:27:55.057Z,15.27
2019-01-20T16:30:25.946Z,17.47
2019-01-20T16:32:54.475Z,19.03
2019-01-20T16:35:23.767Z,21.73
2019-01-20T16:37:52.269Z,19.90
2019-01-20T16:40:22.795Z,25.07
2019-01-20T16:42:54.034Z,25.43
2019-01-20T16:45:32.805Z,21.97
2019-01-20T16:48:01.916Z,15.93
2019-01-20T16:50:30.412Z,15.60
2019-01-20T16:53:00.639Z,15.93
2019-01-20T16:55:29.132Z,13.67
2019-01-20T16:57:58.551Z,14.50
2019-01-20T17:00:29.375Z,15.90
2019-01-20T17:02:57.859Z,16.20
2019-01-20T17:05:27.137Z,14.03
2019-01-20T17:07:55.762Z,14.37
2019-01-20T17:10:27.117Z,19.30
2019-01-20T17:12:55.616Z,14.33
2019-01-20T17:15:39.391Z,14.00
2019-01-20T17:18:03.159Z,15.43
2019-01-20T17:20:31.644Z,13.83
2019-01-20T17:23:00.167Z,13.70
2019-01-20T17:25:28.652Z,14.13
2019-01-20T17:27:57.145Z,13.67
2019-01-20T17:30:33.809Z,12.80
2019-01-20T17:33:02.569Z,12.20
2019-01-20T17:35:33.781Z,12.73
2019-01-20T17:38:02.317Z,15.67
2019-01-20T17:40:30.822Z,13.80
2019-01-20T17:43:00.888Z,14.43
2019-01-20T17:45:35.116Z,14.37
2019-01-20T17:48:03.612Z,17.90
2019-01-20T17:50:37.075Z,16.47
2019-01-20T17:53:07.669Z,22.33
2019-01-20T17:55:36.174Z,19.33
2019-01-20T17:58:04.981Z,18.30
2019-01-20T18:00:36.874Z,17.13
2019-01-20T18:03:06.166Z,17.80
2019-01-20T18:05:34.653Z,16.40
2019-01-20T18:08:03.302Z,17.40
2019-01-20T18:10:31.777Z,19.03
2019-01-20T18:13:00.286Z,20.17
2019-01-20T18:15:30.489Z,16.90
2019-01-20T18:17:59.004Z,15.13
2019-01-20T18:20:31.772Z,16.93
2019-01-20T18:23:03.052Z,22.90
2019-01-20T18:25:31.563Z,22.80
2019-01-20T18:28:00.055Z,18.20
2019-01-20T18:30:30.109Z,21.17
2019-01-20T18:32:58.610Z,30.77
2019-01-20T18:35:28.774Z,28.73
2019-01-20T18:37:57.310Z,24.93
2019-01-20T18:40:26.495Z,40.20
2019-01-20T18:42:57.688Z,33.37
2019-01-20T18:45:31.108Z,27.47
2019-01-20T18:48:01.191Z,22.50
2019-01-20T18:50:34.997Z,20.43
2019-01-20T18:53:05.066Z,22.20
2019-01-20T18:55:35.129Z,22.90
2019-01-20T18:58:03.646Z,23.47
2019-01-20T19:00:37.629Z,24.27
2019-01-20T19:03:07.005Z,24.07
2019-01-20T19:05:35.539Z,23.93
2019-01-20T19:08:04.055Z,23.40
2019-01-20T19:10:32.556Z,23.20
2019-01-20T19:13:01.091Z,21.20
2019-01-20T19:15:29.588Z,22.57
2019-01-20T19:17:58.119Z,23.80
2019-01-20T19:20:28.538Z,22.87
2019-01-20T19:22:57.938Z,22.47
2019-01-20T19:25:26.427Z,23.63
2019-01-20T19:27:54.965Z,22.53
2019-01-20T19:30:28.858Z,20.03
2019-01-20T19:32:57.355Z,20.17
2019-01-20T19:35:28.699Z,19.80
2019-01-20T19:37:57.200Z,20.77
2019-01-20T19:40:25.692Z,19.23
2019-01-20T19:42:54.233Z,19.57
2019-01-20T19:45:22.738Z,20.47
2019-01-20T19:47:51.238Z,20.23
2019-01-20T19:50:19.800Z,20.73
2019-01-20T19:52:48.271Z,18.77
2019-01-20T19:55:19.882Z,17.17
2019-01-20T19:57:48.423Z,16.17
2019-01-20T20:00:22.098Z,15.57
2019-01-20T20:02:50.601Z,15.90
2019-01-20T20:05:22.432Z,17.87
2019-01-20T20:07:51.635Z,17.70
2019-01-20T20:10:25.765Z,17.30
2019-01-20T20:12:55.078Z,16.93
2019-01-20T20:15:25.836Z,17.23
2019-01-20T20:17:54.368Z,14.77
2019-01-20T20:20:24.436Z,15.73
2019-01-20T20:22:52.924Z,15.20
2019-01-20T20:25:23.065Z,26.07
2019-01-20T20:27:51.953Z,25.67
2019-01-20T20:30:23.201Z,23.97
2019-01-20T20:32:51.726Z,24.53
2019-01-20T20:35:20.285Z,23.70
2019-01-20T20:37:48.741Z,22.87
2019-01-20T20:40:19.080Z,28.47
2019-01-20T20:42:47.580Z,25.37
2019-01-20T20:45:20.842Z,32.57
2019-01-20T20:47:49.375Z,35.30
2019-01-20T20:50:18.463Z,35.90
2019-01-20T20:52:46.965Z,33.80
2019-01-20T20:55:15.502Z,33.17
2019-01-20T20:57:45.556Z,38.13
2019-01-20T21:00:17.098Z,38.50
2019-01-20T21:02:45.641Z,44.47
2019-01-20T21:05:14.143Z,53.63
2019-01-20T21:07:42.770Z,52.73
2019-01-20T21:10:14.011Z,49.23
2019-01-20T21:12:45.295Z,48.33
2019-01-20T21:15:15.944Z,41.63
2019-01-20T21:17:48.437Z,36.30
2019-01-20T21:20:23.934Z,33.17
2019-01-20T21:22:52.472Z,30.53
2019-01-20T21:25:22.549Z,25.83
2019-01-20T21:27:51.054Z,28.67
2019-01-20T21:30:27.342Z,30.77
2019-01-20T21:32:55.845Z,33.97
2019-01-20T21:35:24.330Z,35.33
2019-01-20T21:37:52.862Z,32.13
2019-01-20T21:40:21.373Z,31.30
2019-01-20T21:42:49.874Z,32.90
2019-01-20T21:45:18.607Z,34.23
2019-01-20T21:47:47.096Z,36.73
2019-01-20T21:50:29.831Z,35.90
2019-01-20T21:52:58.334Z,33.60
2019-01-20T21:55:26.824Z,30.97
2019-01-20T21:57:55.365Z,49.73
2019-01-20T22:00:28.513Z,46.37
2019-01-20T22:02:57.021Z,41.00
2019-01-20T22:05:25.549Z,39.80
2019-01-20T22:07:54.913Z,39.40
2019-01-20T22:10:24.258Z,36.03
2019-01-20T22:12:52.742Z,36.93
2019-01-20T22:15:21.265Z,35.47
2019-01-20T22:17:49.751Z,36.03
2019-01-20T22:20:21.413Z,36.37
2019-01-20T22:22:49.997Z,36.33
2019-01-20T22:25:18.498Z,33.00
2019-01-20T22:30:23.260Z,34.10
2019-01-20T22:32:51.624Z,32.13
2019-01-20T22:35:19.972Z,28.87
2019-01-20T22:37:48.285Z,27.30
2019-01-20T22:40:18.112Z,25.20
2019-01-20T22:42:46.464Z,21.03
2019-01-20T22:45:17.026Z,23.83
2019-01-20T22:47:45.308Z,20.20
2019-01-20T22:50:14.058Z,24.63
2019-01-20T22:52:42.488Z,22.90
2019-01-20T22:55:15.331Z,21.43
2019-01-20T22:57:43.619Z,22.57
2019-01-20T23:00:49.053Z,23.47
2019-01-20T23:03:17.339Z,24.53
2019-01-20T23:05:45.799Z,26.60
2019-01-20T23:08:14.153Z,22.30
2019-01-20T23:10:43.269Z,17.20
2019-01-20T23:13:11.595Z,17.67
2019-01-20T23:15:39.960Z,18.70
2019-01-20T23:18:08.247Z,21.30
2019-01-20T23:20:36.520Z,20.53
2019-01-20T23:23:04.838Z,20.43
2019-01-20T23:25:33.120Z,21.97
2019-01-20T23:28:01.399Z,20.73
2019-01-20T23:30:29.711Z,23.17
2019-01-20T23:32:57.992Z,20.80
2019-01-20T23:35:26.265Z,17.70
2019-01-20T23:37:54.583Z,22.20
2019-01-20T23:40:22.865Z,16.53
2019-01-20T23:42:51.150Z,19.33
2019-01-20T23:45:19.466Z,19.10
2019-01-20T23:47:47.778Z,20.07
2019-01-20T23:50:17.161Z,21.07
2019-01-20T23:52:45.543Z,20.33
2019-01-20T23:55:13.915Z,16.40
2019-01-20T23:57:42.195Z,17.17
